This is the latest recevied weather packets stored in our database for station/object W1HS. If no packets are shown the sender has not sent any weather packets the latest 10 day(s).
| Time | Temp. | Humidity | Pressure | Rain* | Wind** | Luminosity | Snow |
|---|---|---|---|---|---|---|---|
| 1778027598 | 17.78° C | 73% | 987.9 hPa | 0 mm | - | 0 W/m² | - |
| 1778026998 | 17.78° C | 74% | 987.8 hPa | 0 mm | - | 0 W/m² | - |
| 1778026403 | 17.78° C | 73% | 987.8 hPa | 0 mm | - | 0 W/m² | - |
| 1778025798 | 17.78° C | 73% | 987.8 hPa | 0 mm | - | 0 W/m² | - |
| 1778025199 | 17.78° C | 73% | 987.8 hPa | 0 mm | - | 0 W/m² | - |
| 1778024599 | 18.33° C | 73% | 987.3 hPa | 0 mm | - | 0 W/m² | - |
| 1778024001 | 18.33° C | 72% | 987.4 hPa | 0 mm | - | 0 W/m² | - |
| 1778023398 | 18.33° C | 71% | 987.4 hPa | 0 mm | - | 0 W/m² | - |
| 1778022798 | 18.33° C | 72% | 987.3 hPa | 0 mm | - | 7 W/m² | - |
| 1778022198 | 17.78° C | 73% | 987 hPa | 0 mm | - | 16 W/m² | - |
| 1778021603 | 17.78° C | 73% | 986.9 hPa | 0 mm | - | 23 W/m² | - |
| 1778021001 | 17.78° C | 74% | 986.6 hPa | 0 mm | - | 18 W/m² | - |
| 1778020398 | 18.33° C | 73% | 986.4 hPa | 0 mm | - | 28 W/m² | - |
| 1778019798 | 18.89° C | 70% | 986.5 hPa | 0 mm | - | 18 W/m² | - |
| 1778019200 | 18.89° C | 69% | 986.1 hPa | 0 mm | - | 33 W/m² | - |
| 1778018599 | 19.44° C | 65% | 985.9 hPa | 0 mm | - | 11 W/m² | - |
| 1778017998 | 20° C | 64% | 985.4 hPa | 0 mm | - | 47 W/m² | - |
| 1778017398 | 20° C | 62% | 985.8 hPa | 0 mm | - | 130 W/m² | - |
| 1778016799 | 19.44° C | 64% | 985.4 hPa | 0 mm | - | 489 W/m² | - |
| 1778016198 | 20° C | 61% | 985.8 hPa | 0 mm | - | 23 W/m² | - |
| 1778015598 | 21.11° C | 55% | 985.7 hPa | 0 mm | - | 30 W/m² | - |
| 1778015000 | 25° C | 38% | 985.7 hPa | 0 mm | - | 18 W/m² | - |
| 1778014473 | 25.56° C | 35% | 984.5 hPa | 0 mm | - | 88 W/m² | - |
| 1778014038 | 25.56° C | 34% | 984.3 hPa | 0 mm | - | 178 W/m² | - |
| 1778013446 | 26.11° C | 34% | 984.1 hPa | 0 mm | - | 461 W/m² | - |
* Rain latest hour (hover to see other rain measurements)
** Current wind speed in m/s (hover to see current wind gust speed)